createdAt,value
2018-08-07T21:57:48.205Z,33.00
2018-08-07T22:00:36.541Z,31.70
2018-08-07T22:03:08.086Z,31.40
2018-08-07T22:05:42.821Z,29.90
2018-08-07T22:08:17.471Z,29.60
2018-08-07T22:10:52.941Z,29.20
2018-08-07T22:13:26.143Z,27.90
2018-08-07T22:15:59.603Z,27.90
2018-08-07T22:18:33.114Z,28.60
2018-08-07T22:21:08.046Z,29.00
2018-08-07T22:23:40.709Z,28.70
2018-08-07T22:26:11.232Z,29.00
2018-08-07T22:28:42.066Z,29.50
2018-08-07T22:31:12.632Z,29.70
2018-08-07T22:35:45.997Z,28.70
2018-08-07T22:41:22.543Z,27.90
2018-08-07T22:43:54.941Z,27.70
2018-08-07T22:46:27.702Z,27.40
2018-08-07T22:48:59.970Z,27.20
2018-08-07T22:51:32.922Z,27.20
2018-08-07T22:54:05.536Z,27.20
2018-08-07T22:56:37.717Z,27.00
2018-08-07T22:59:11.277Z,26.90
2018-08-07T23:01:44.339Z,26.50
2018-08-07T23:04:16.911Z,26.40
2018-08-07T23:09:30.801Z,26.00
2018-08-07T23:12:03.063Z,25.90
2018-08-07T23:14:35.343Z,25.70
2018-08-07T23:17:08.153Z,25.40
2018-08-07T23:19:40.372Z,25.50
2018-08-07T23:22:12.670Z,25.50
2018-08-07T23:24:45.147Z,25.50
2018-08-07T23:27:17.394Z,25.50
2018-08-07T23:29:49.578Z,25.50
2018-08-07T23:32:22.392Z,25.50
2018-08-07T23:34:54.352Z,25.40
2018-08-07T23:37:26.583Z,25.40
2018-08-07T23:39:59.802Z,25.30
2018-08-07T23:42:31.947Z,25.30
2018-08-07T23:45:04.214Z,25.30
2018-08-07T23:47:36.783Z,25.30
2018-08-07T23:50:10.583Z,25.30
2018-08-07T23:52:43.870Z,25.20
2018-08-07T23:55:16.456Z,25.10
2018-08-07T23:57:48.679Z,25.00
